<?xml version="1.0" encoding="utf-8"?>
<gpx xmlns:xsi="http://www.w3.org/2001/XMLSchema-instance" xmlns:xsd="http://www.w3.org/2001/XMLSchema" version="1.1" creator="Shapelink.com" xmlns="http://www.topografix.com/GPX/1/1" xmlns:gpxtpx="http://www.garmin.com/xmlschemas/TrackPointExtension/v1">
  <metadata>
    <name>Walking 5/28/20 8:05 pm 2.61 km, 2020-05-28</name>
    <desc></desc>
    <author><name>Marian Moron</name></author> 
    <time>2020-05-28T20:05:49Z</time>
  </metadata>
  <trk>
    <name>Walking 5/28/20 8:05 pm 2.61 km, 2020-05-28</name>
    <trkseg>
      <trkpt lat="51.228543" lon="4.449228">
        <ele>3.6</ele>
        <time>2020-05-28T20:05:49Z</time>
      </trkpt>
      <trkpt lat="51.228626" lon="4.449165">
        <ele>3.6</ele>
        <time>2020-05-28T20:05:54Z</time>
      </trkpt>
      <trkpt lat="51.228695" lon="4.449089">
        <ele>3.7</ele>
        <time>2020-05-28T20:06:01Z</time>
      </trkpt>
      <trkpt lat="51.228761" lon="4.449009">
        <ele>3.6</ele>
        <time>2020-05-28T20:06:13Z</time>
      </trkpt>
      <trkpt lat="51.228812" lon="4.4489">
        <ele>3.5</ele>
        <time>2020-05-28T20:06:21Z</time>
      </trkpt>
      <trkpt lat="51.22885" lon="4.448775">
        <ele>3.5</ele>
        <time>2020-05-28T20:06:52Z</time>
      </trkpt>
      <trkpt lat="51.228912" lon="4.448676">
        <ele>3.5</ele>
        <time>2020-05-28T20:07:00Z</time>
      </trkpt>
      <trkpt lat="51.22897" lon="4.448568">
        <ele>3.6</ele>
        <time>2020-05-28T20:07:09Z</time>
      </trkpt>
      <trkpt lat="51.229051" lon="4.448524">
        <ele>3.5</ele>
        <time>2020-05-28T20:07:21Z</time>
      </trkpt>
      <trkpt lat="51.229129" lon="4.448577">
        <ele>3.5</ele>
        <time>2020-05-28T20:07:28Z</time>
      </trkpt>
      <trkpt lat="51.22919" lon="4.448671">
        <ele>3.4</ele>
        <time>2020-05-28T20:07:37Z</time>
      </trkpt>
      <trkpt lat="51.229226" lon="4.448789">
        <ele>3.2</ele>
        <time>2020-05-28T20:07:45Z</time>
      </trkpt>
      <trkpt lat="51.229285" lon="4.448888">
        <ele>3</ele>
        <time>2020-05-28T20:07:55Z</time>
      </trkpt>
      <trkpt lat="51.229314" lon="4.449009">
        <ele>2.9</ele>
        <time>2020-05-28T20:08:05Z</time>
      </trkpt>
      <trkpt lat="51.229336" lon="4.449147">
        <ele>2.8</ele>
        <time>2020-05-28T20:08:14Z</time>
      </trkpt>
      <trkpt lat="51.229393" lon="4.449242">
        <ele>2.8</ele>
        <time>2020-05-28T20:08:21Z</time>
      </trkpt>
      <trkpt lat="51.229424" lon="4.449375">
        <ele>2.8</ele>
        <time>2020-05-28T20:08:29Z</time>
      </trkpt>
      <trkpt lat="51.229463" lon="4.4495">
        <ele>2.8</ele>
        <time>2020-05-28T20:08:38Z</time>
      </trkpt>
      <trkpt lat="51.229532" lon="4.44958">
        <ele>2.7</ele>
        <time>2020-05-28T20:08:44Z</time>
      </trkpt>
      <trkpt lat="51.22948" lon="4.449696">
        <ele>2.7</ele>
        <time>2020-05-28T20:08:51Z</time>
      </trkpt>
      <trkpt lat="51.229493" lon="4.449824">
        <ele>2.8</ele>
        <time>2020-05-28T20:09:00Z</time>
      </trkpt>
      <trkpt lat="51.229488" lon="4.449954">
        <ele>2.9</ele>
        <time>2020-05-28T20:09:10Z</time>
      </trkpt>
      <trkpt lat="51.229543" lon="4.450063">
        <ele>3.1</ele>
        <time>2020-05-28T20:09:18Z</time>
      </trkpt>
      <trkpt lat="51.229578" lon="4.45019">
        <ele>3.3</ele>
        <time>2020-05-28T20:09:27Z</time>
      </trkpt>
      <trkpt lat="51.229624" lon="4.450298">
        <ele>3.4</ele>
        <time>2020-05-28T20:09:35Z</time>
      </trkpt>
      <trkpt lat="51.229622" lon="4.450429">
        <ele>3.5</ele>
        <time>2020-05-28T20:09:43Z</time>
      </trkpt>
      <trkpt lat="51.229644" lon="4.450566">
        <ele>3.5</ele>
        <time>2020-05-28T20:09:51Z</time>
      </trkpt>
      <trkpt lat="51.22967" lon="4.4507">
        <ele>3.5</ele>
        <time>2020-05-28T20:10:02Z</time>
      </trkpt>
      <trkpt lat="51.229699" lon="4.450831">
        <ele>3.4</ele>
        <time>2020-05-28T20:10:10Z</time>
      </trkpt>
      <trkpt lat="51.229681" lon="4.450969">
        <ele>3.3</ele>
        <time>2020-05-28T20:10:19Z</time>
      </trkpt>
      <trkpt lat="51.229671" lon="4.451106">
        <ele>3.2</ele>
        <time>2020-05-28T20:10:27Z</time>
      </trkpt>
      <trkpt lat="51.229683" lon="4.451241">
        <ele>2.9</ele>
        <time>2020-05-28T20:10:36Z</time>
      </trkpt>
      <trkpt lat="51.22974" lon="4.451341">
        <ele>2.6</ele>
        <time>2020-05-28T20:10:44Z</time>
      </trkpt>
      <trkpt lat="51.229788" lon="4.451463">
        <ele>2.4</ele>
        <time>2020-05-28T20:10:53Z</time>
      </trkpt>
      <trkpt lat="51.229804" lon="4.451601">
        <ele>2</ele>
        <time>2020-05-28T20:11:03Z</time>
      </trkpt>
      <trkpt lat="51.229834" lon="4.451732">
        <ele>1.7</ele>
        <time>2020-05-28T20:11:12Z</time>
      </trkpt>
      <trkpt lat="51.229868" lon="4.451858">
        <ele>1.5</ele>
        <time>2020-05-28T20:11:21Z</time>
      </trkpt>
      <trkpt lat="51.229922" lon="4.451976">
        <ele>1.5</ele>
        <time>2020-05-28T20:11:29Z</time>
      </trkpt>
      <trkpt lat="51.229926" lon="4.452112">
        <ele>1.5</ele>
        <time>2020-05-28T20:11:39Z</time>
      </trkpt>
      <trkpt lat="51.229922" lon="4.452246">
        <ele>1.5</ele>
        <time>2020-05-28T20:11:48Z</time>
      </trkpt>
      <trkpt lat="51.229895" lon="4.452378">
        <ele>1.7</ele>
        <time>2020-05-28T20:11:58Z</time>
      </trkpt>
      <trkpt lat="51.229933" lon="4.452511">
        <ele>1.9</ele>
        <time>2020-05-28T20:12:08Z</time>
      </trkpt>
      <trkpt lat="51.229936" lon="4.452653">
        <ele>2.2</ele>
        <time>2020-05-28T20:12:20Z</time>
      </trkpt>
      <trkpt lat="51.229954" lon="4.452781">
        <ele>2.5</ele>
        <time>2020-05-28T20:12:29Z</time>
      </trkpt>
      <trkpt lat="51.23001" lon="4.452882">
        <ele>2.9</ele>
        <time>2020-05-28T20:12:38Z</time>
      </trkpt>
      <trkpt lat="51.230036" lon="4.453011">
        <ele>3.4</ele>
        <time>2020-05-28T20:12:46Z</time>
      </trkpt>
      <trkpt lat="51.230093" lon="4.453119">
        <ele>3.7</ele>
        <time>2020-05-28T20:12:54Z</time>
      </trkpt>
      <trkpt lat="51.230075" lon="4.453245">
        <ele>4.1</ele>
        <time>2020-05-28T20:13:02Z</time>
      </trkpt>
      <trkpt lat="51.230099" lon="4.453383">
        <ele>4.3</ele>
        <time>2020-05-28T20:13:11Z</time>
      </trkpt>
      <trkpt lat="51.230118" lon="4.453516">
        <ele>4.3</ele>
        <time>2020-05-28T20:13:20Z</time>
      </trkpt>
      <trkpt lat="51.230126" lon="4.453655">
        <ele>4.3</ele>
        <time>2020-05-28T20:13:30Z</time>
      </trkpt>
      <trkpt lat="51.230154" lon="4.453778">
        <ele>4.1</ele>
        <time>2020-05-28T20:13:39Z</time>
      </trkpt>
      <trkpt lat="51.230159" lon="4.453914">
        <ele>3.9</ele>
        <time>2020-05-28T20:13:48Z</time>
      </trkpt>
      <trkpt lat="51.230187" lon="4.454042">
        <ele>3.7</ele>
        <time>2020-05-28T20:13:56Z</time>
      </trkpt>
      <trkpt lat="51.23022" lon="4.454165">
        <ele>3.5</ele>
        <time>2020-05-28T20:14:04Z</time>
      </trkpt>
      <trkpt lat="51.230217" lon="4.454299">
        <ele>3.3</ele>
        <time>2020-05-28T20:14:14Z</time>
      </trkpt>
      <trkpt lat="51.230238" lon="4.454438">
        <ele>3.2</ele>
        <time>2020-05-28T20:14:23Z</time>
      </trkpt>
      <trkpt lat="51.23024" lon="4.45457">
        <ele>3.1</ele>
        <time>2020-05-28T20:14:32Z</time>
      </trkpt>
      <trkpt lat="51.230267" lon="4.454698">
        <ele>3.1</ele>
        <time>2020-05-28T20:14:48Z</time>
      </trkpt>
      <trkpt lat="51.230231" lon="4.454831">
        <ele>3.2</ele>
        <time>2020-05-28T20:14:58Z</time>
      </trkpt>
      <trkpt lat="51.230193" lon="4.45495">
        <ele>3.4</ele>
        <time>2020-05-28T20:15:07Z</time>
      </trkpt>
      <trkpt lat="51.230148" lon="4.455072">
        <ele>3.6</ele>
        <time>2020-05-28T20:15:17Z</time>
      </trkpt>
      <trkpt lat="51.230141" lon="4.455205">
        <ele>4</ele>
        <time>2020-05-28T20:15:27Z</time>
      </trkpt>
      <trkpt lat="51.230134" lon="4.455335">
        <ele>4.3</ele>
        <time>2020-05-28T20:15:36Z</time>
      </trkpt>
      <trkpt lat="51.230209" lon="4.455407">
        <ele>4.5</ele>
        <time>2020-05-28T20:15:46Z</time>
      </trkpt>
      <trkpt lat="51.230294" lon="4.45545">
        <ele>4.9</ele>
        <time>2020-05-28T20:15:55Z</time>
      </trkpt>
      <trkpt lat="51.230371" lon="4.45552">
        <ele>5.1</ele>
        <time>2020-05-28T20:16:04Z</time>
      </trkpt>
      <trkpt lat="51.230459" lon="4.455489">
        <ele>5.2</ele>
        <time>2020-05-28T20:16:17Z</time>
      </trkpt>
      <trkpt lat="51.23052" lon="4.455392">
        <ele>5.2</ele>
        <time>2020-05-28T20:16:24Z</time>
      </trkpt>
      <trkpt lat="51.230609" lon="4.455425">
        <ele>5.1</ele>
        <time>2020-05-28T20:16:34Z</time>
      </trkpt>
      <trkpt lat="51.23068" lon="4.455507">
        <ele>4.9</ele>
        <time>2020-05-28T20:16:42Z</time>
      </trkpt>
      <trkpt lat="51.230763" lon="4.455552">
        <ele>4.7</ele>
        <time>2020-05-28T20:16:50Z</time>
      </trkpt>
      <trkpt lat="51.230845" lon="4.455601">
        <ele>4.5</ele>
        <time>2020-05-28T20:17:00Z</time>
      </trkpt>
      <trkpt lat="51.230913" lon="4.455681">
        <ele>4.3</ele>
        <time>2020-05-28T20:17:09Z</time>
      </trkpt>
      <trkpt lat="51.230972" lon="4.455785">
        <ele>4.2</ele>
        <time>2020-05-28T20:17:18Z</time>
      </trkpt>
      <trkpt lat="51.231047" lon="4.45585">
        <ele>4.1</ele>
        <time>2020-05-28T20:17:26Z</time>
      </trkpt>
      <trkpt lat="51.231124" lon="4.455913">
        <ele>3.8</ele>
        <time>2020-05-28T20:17:35Z</time>
      </trkpt>
      <trkpt lat="51.231208" lon="4.455957">
        <ele>3.7</ele>
        <time>2020-05-28T20:17:46Z</time>
      </trkpt>
      <trkpt lat="51.231281" lon="4.456029">
        <ele>3.6</ele>
        <time>2020-05-28T20:17:56Z</time>
      </trkpt>
      <trkpt lat="51.231279" lon="4.456171">
        <ele>3.6</ele>
        <time>2020-05-28T20:18:05Z</time>
      </trkpt>
      <trkpt lat="51.231279" lon="4.456304">
        <ele>3.6</ele>
        <time>2020-05-28T20:18:13Z</time>
      </trkpt>
      <trkpt lat="51.231219" lon="4.456405">
        <ele>3.7</ele>
        <time>2020-05-28T20:18:22Z</time>
      </trkpt>
      <trkpt lat="51.231261" lon="4.456519">
        <ele>3.7</ele>
        <time>2020-05-28T20:18:30Z</time>
      </trkpt>
      <trkpt lat="51.231234" lon="4.456642">
        <ele>3.6</ele>
        <time>2020-05-28T20:18:36Z</time>
      </trkpt>
      <trkpt lat="51.231232" lon="4.456781">
        <ele>3.5</ele>
        <time>2020-05-28T20:18:45Z</time>
      </trkpt>
      <trkpt lat="51.231216" lon="4.456909">
        <ele>3.2</ele>
        <time>2020-05-28T20:18:55Z</time>
      </trkpt>
      <trkpt lat="51.231243" lon="4.457034">
        <ele>2.9</ele>
        <time>2020-05-28T20:19:04Z</time>
      </trkpt>
      <trkpt lat="51.231205" lon="4.457152">
        <ele>2.7</ele>
        <time>2020-05-28T20:19:12Z</time>
      </trkpt>
      <trkpt lat="51.231166" lon="4.457283">
        <ele>2.5</ele>
        <time>2020-05-28T20:19:21Z</time>
      </trkpt>
      <trkpt lat="51.231182" lon="4.457425">
        <ele>2.2</ele>
        <time>2020-05-28T20:19:28Z</time>
      </trkpt>
      <trkpt lat="51.231173" lon="4.457559">
        <ele>2</ele>
        <time>2020-05-28T20:19:35Z</time>
      </trkpt>
      <trkpt lat="51.231168" lon="4.457689">
        <ele>1.8</ele>
        <time>2020-05-28T20:19:42Z</time>
      </trkpt>
      <trkpt lat="51.231182" lon="4.457819">
        <ele>1.7</ele>
        <time>2020-05-28T20:19:49Z</time>
      </trkpt>
      <trkpt lat="51.231204" lon="4.457951">
        <ele>1.7</ele>
        <time>2020-05-28T20:19:58Z</time>
      </trkpt>
      <trkpt lat="51.231219" lon="4.458091">
        <ele>1.9</ele>
        <time>2020-05-28T20:20:06Z</time>
      </trkpt>
      <trkpt lat="51.231223" lon="4.45822">
        <ele>2.1</ele>
        <time>2020-05-28T20:20:13Z</time>
      </trkpt>
      <trkpt lat="51.231288" lon="4.45832">
        <ele>2.5</ele>
        <time>2020-05-28T20:20:22Z</time>
      </trkpt>
      <trkpt lat="51.231363" lon="4.458368">
        <ele>2.7</ele>
        <time>2020-05-28T20:20:29Z</time>
      </trkpt>
      <trkpt lat="51.231443" lon="4.458302">
        <ele>3</ele>
        <time>2020-05-28T20:20:38Z</time>
      </trkpt>
      <trkpt lat="51.231519" lon="4.45824">
        <ele>3.2</ele>
        <time>2020-05-28T20:20:46Z</time>
      </trkpt>
      <trkpt lat="51.231587" lon="4.458312">
        <ele>3.4</ele>
        <time>2020-05-28T20:20:54Z</time>
      </trkpt>
      <trkpt lat="51.231659" lon="4.458378">
        <ele>3.4</ele>
        <time>2020-05-28T20:21:12Z</time>
      </trkpt>
      <trkpt lat="51.231575" lon="4.45842">
        <ele>3.4</ele>
        <time>2020-05-28T20:23:47Z</time>
      </trkpt>
      <trkpt lat="51.23149" lon="4.458448">
        <ele>3.3</ele>
        <time>2020-05-28T20:23:58Z</time>
      </trkpt>
      <trkpt lat="51.231403" lon="4.458499">
        <ele>3.2</ele>
        <time>2020-05-28T20:24:06Z</time>
      </trkpt>
      <trkpt lat="51.231329" lon="4.458571">
        <ele>3</ele>
        <time>2020-05-28T20:24:12Z</time>
      </trkpt>
      <trkpt lat="51.231258" lon="4.458638">
        <ele>2.8</ele>
        <time>2020-05-28T20:24:23Z</time>
      </trkpt>
      <trkpt lat="51.231189" lon="4.458709">
        <ele>2.5</ele>
        <time>2020-05-28T20:24:33Z</time>
      </trkpt>
      <trkpt lat="51.231109" lon="4.458782">
        <ele>2.3</ele>
        <time>2020-05-28T20:24:41Z</time>
      </trkpt>
      <trkpt lat="51.231022" lon="4.458816">
        <ele>2</ele>
        <time>2020-05-28T20:24:50Z</time>
      </trkpt>
      <trkpt lat="51.230939" lon="4.458837">
        <ele>1.8</ele>
        <time>2020-05-28T20:25:00Z</time>
      </trkpt>
      <trkpt lat="51.230853" lon="4.458867">
        <ele>1.7</ele>
        <time>2020-05-28T20:25:08Z</time>
      </trkpt>
      <trkpt lat="51.230768" lon="4.458854">
        <ele>1.7</ele>
        <time>2020-05-28T20:25:18Z</time>
      </trkpt>
      <trkpt lat="51.230688" lon="4.458831">
        <ele>1.7</ele>
        <time>2020-05-28T20:25:26Z</time>
      </trkpt>
      <trkpt lat="51.230607" lon="4.458866">
        <ele>1.7</ele>
        <time>2020-05-28T20:25:35Z</time>
      </trkpt>
      <trkpt lat="51.230523" lon="4.458898">
        <ele>1.8</ele>
        <time>2020-05-28T20:25:45Z</time>
      </trkpt>
      <trkpt lat="51.230433" lon="4.458921">
        <ele>2</ele>
        <time>2020-05-28T20:25:52Z</time>
      </trkpt>
      <trkpt lat="51.230356" lon="4.458981">
        <ele>2.2</ele>
        <time>2020-05-28T20:26:07Z</time>
      </trkpt>
      <trkpt lat="51.230274" lon="4.458991">
        <ele>2.4</ele>
        <time>2020-05-28T20:26:14Z</time>
      </trkpt>
      <trkpt lat="51.230189" lon="4.459014">
        <ele>2.6</ele>
        <time>2020-05-28T20:26:27Z</time>
      </trkpt>
      <trkpt lat="51.230108" lon="4.45899">
        <ele>2.9</ele>
        <time>2020-05-28T20:26:38Z</time>
      </trkpt>
      <trkpt lat="51.230031" lon="4.458936">
        <ele>3.2</ele>
        <time>2020-05-28T20:26:48Z</time>
      </trkpt>
      <trkpt lat="51.229996" lon="4.458815">
        <ele>3.3</ele>
        <time>2020-05-28T20:26:58Z</time>
      </trkpt>
      <trkpt lat="51.230004" lon="4.458682">
        <ele>3.4</ele>
        <time>2020-05-28T20:27:04Z</time>
      </trkpt>
      <trkpt lat="51.229998" lon="4.458538">
        <ele>3.5</ele>
        <time>2020-05-28T20:27:11Z</time>
      </trkpt>
      <trkpt lat="51.229991" lon="4.458408">
        <ele>3.5</ele>
        <time>2020-05-28T20:27:18Z</time>
      </trkpt>
      <trkpt lat="51.229963" lon="4.458283">
        <ele>3.5</ele>
        <time>2020-05-28T20:27:25Z</time>
      </trkpt>
      <trkpt lat="51.229958" lon="4.458147">
        <ele>3.5</ele>
        <time>2020-05-28T20:27:33Z</time>
      </trkpt>
      <trkpt lat="51.229931" lon="4.458014">
        <ele>3.5</ele>
        <time>2020-05-28T20:27:42Z</time>
      </trkpt>
      <trkpt lat="51.229865" lon="4.457925">
        <ele>3.5</ele>
        <time>2020-05-28T20:27:50Z</time>
      </trkpt>
      <trkpt lat="51.229797" lon="4.458012">
        <ele>3.4</ele>
        <time>2020-05-28T20:27:58Z</time>
      </trkpt>
      <trkpt lat="51.229721" lon="4.45809">
        <ele>3.4</ele>
        <time>2020-05-28T20:28:18Z</time>
      </trkpt>
      <trkpt lat="51.229678" lon="4.45821">
        <ele>3.3</ele>
        <time>2020-05-28T20:28:24Z</time>
      </trkpt>
      <trkpt lat="51.229664" lon="4.458217">
        <ele>3.3</ele>
        <time>2020-05-28T20:30:36Z</time>
      </trkpt>
      <trkpt lat="51.229681" lon="4.458035">
        <ele>3.7</ele>
        <time>2020-05-28T20:44:56Z</time>
      </trkpt>
      <trkpt lat="51.229642" lon="4.458028">
        <ele>3.6</ele>
        <time>2020-05-28T20:44:59Z</time>
      </trkpt>
      <trkpt lat="51.22956" lon="4.458035">
        <ele>3.5</ele>
        <time>2020-05-28T20:45:03Z</time>
      </trkpt>
      <trkpt lat="51.229479" lon="4.458078">
        <ele>3.6</ele>
        <time>2020-05-28T20:45:08Z</time>
      </trkpt>
      <trkpt lat="51.22939" lon="4.458122">
        <ele>3.6</ele>
        <time>2020-05-28T20:45:15Z</time>
      </trkpt>
      <trkpt lat="51.22931" lon="4.458141">
        <ele>3.6</ele>
        <time>2020-05-28T20:45:21Z</time>
      </trkpt>
      <trkpt lat="51.22922" lon="4.458134">
        <ele>3.7</ele>
        <time>2020-05-28T20:45:28Z</time>
      </trkpt>
      <trkpt lat="51.229135" lon="4.458132">
        <ele>3.8</ele>
        <time>2020-05-28T20:45:34Z</time>
      </trkpt>
      <trkpt lat="51.229053" lon="4.458141">
        <ele>3.8</ele>
        <time>2020-05-28T20:45:39Z</time>
      </trkpt>
      <trkpt lat="51.228969" lon="4.458178">
        <ele>3.7</ele>
        <time>2020-05-28T20:45:44Z</time>
      </trkpt>
      <trkpt lat="51.228876" lon="4.458207">
        <ele>3.6</ele>
        <time>2020-05-28T20:45:50Z</time>
      </trkpt>
      <trkpt lat="51.2288" lon="4.458255">
        <ele>3.5</ele>
        <time>2020-05-28T20:45:55Z</time>
      </trkpt>
      <trkpt lat="51.228723" lon="4.458303">
        <ele>3.4</ele>
        <time>2020-05-28T20:46:00Z</time>
      </trkpt>
      <trkpt lat="51.228634" lon="4.458306">
        <ele>3.3</ele>
        <time>2020-05-28T20:46:07Z</time>
      </trkpt>
      <trkpt lat="51.228553" lon="4.458255">
        <ele>3</ele>
        <time>2020-05-28T20:46:13Z</time>
      </trkpt>
      <trkpt lat="51.228539" lon="4.458125">
        <ele>2.8</ele>
        <time>2020-05-28T20:46:25Z</time>
      </trkpt>
      <trkpt lat="51.228497" lon="4.458001">
        <ele>2.6</ele>
        <time>2020-05-28T20:46:33Z</time>
      </trkpt>
      <trkpt lat="51.228494" lon="4.457852">
        <ele>2.5</ele>
        <time>2020-05-28T20:46:39Z</time>
      </trkpt>
      <trkpt lat="51.2285" lon="4.457719">
        <ele>2.5</ele>
        <time>2020-05-28T20:46:45Z</time>
      </trkpt>
      <trkpt lat="51.228479" lon="4.45758">
        <ele>2.4</ele>
        <time>2020-05-28T20:46:52Z</time>
      </trkpt>
      <trkpt lat="51.228445" lon="4.457455">
        <ele>2.5</ele>
        <time>2020-05-28T20:47:01Z</time>
      </trkpt>
      <trkpt lat="51.228385" lon="4.457363">
        <ele>2.5</ele>
        <time>2020-05-28T20:47:08Z</time>
      </trkpt>
      <trkpt lat="51.228304" lon="4.457401">
        <ele>2.8</ele>
        <time>2020-05-28T20:47:17Z</time>
      </trkpt>
      <trkpt lat="51.228231" lon="4.457466">
        <ele>3.2</ele>
        <time>2020-05-28T20:47:24Z</time>
      </trkpt>
      <trkpt lat="51.228158" lon="4.457542">
        <ele>3.5</ele>
        <time>2020-05-28T20:47:31Z</time>
      </trkpt>
      <trkpt lat="51.228071" lon="4.457568">
        <ele>4</ele>
        <time>2020-05-28T20:47:45Z</time>
      </trkpt>
      <trkpt lat="51.227983" lon="4.457556">
        <ele>4.4</ele>
        <time>2020-05-28T20:47:52Z</time>
      </trkpt>
      <trkpt lat="51.227882" lon="4.457554">
        <ele>4.7</ele>
        <time>2020-05-28T20:48:00Z</time>
      </trkpt>
      <trkpt lat="51.227789" lon="4.457599">
        <ele>5</ele>
        <time>2020-05-28T20:48:05Z</time>
      </trkpt>
      <trkpt lat="51.227708" lon="4.457626">
        <ele>5.2</ele>
        <time>2020-05-28T20:48:19Z</time>
      </trkpt>
      <trkpt lat="51.22762" lon="4.457655">
        <ele>5.4</ele>
        <time>2020-05-28T20:48:24Z</time>
      </trkpt>
      <trkpt lat="51.227538" lon="4.457689">
        <ele>5.5</ele>
        <time>2020-05-28T20:48:30Z</time>
      </trkpt>
      <trkpt lat="51.227455" lon="4.457724">
        <ele>5.5</ele>
        <time>2020-05-28T20:48:35Z</time>
      </trkpt>
      <trkpt lat="51.227371" lon="4.457776">
        <ele>5.4</ele>
        <time>2020-05-28T20:48:42Z</time>
      </trkpt>
      <trkpt lat="51.22729" lon="4.457834">
        <ele>5.2</ele>
        <time>2020-05-28T20:48:48Z</time>
      </trkpt>
      <trkpt lat="51.227212" lon="4.457894">
        <ele>5</ele>
        <time>2020-05-28T20:48:54Z</time>
      </trkpt>
      <trkpt lat="51.227133" lon="4.457943">
        <ele>4.8</ele>
        <time>2020-05-28T20:48:59Z</time>
      </trkpt>
      <trkpt lat="51.227047" lon="4.457996">
        <ele>4.6</ele>
        <time>2020-05-28T20:49:12Z</time>
      </trkpt>
      <trkpt lat="51.226973" lon="4.458049">
        <ele>4.5</ele>
        <time>2020-05-28T20:49:18Z</time>
      </trkpt>
      <trkpt lat="51.226885" lon="4.458047">
        <ele>4.3</ele>
        <time>2020-05-28T20:49:25Z</time>
      </trkpt>
      <trkpt lat="51.226805" lon="4.458018">
        <ele>4.2</ele>
        <time>2020-05-28T20:49:32Z</time>
      </trkpt>
      <trkpt lat="51.226723" lon="4.458074">
        <ele>4.1</ele>
        <time>2020-05-28T20:49:49Z</time>
      </trkpt>
      <trkpt lat="51.226641" lon="4.458116">
        <ele>4</ele>
        <time>2020-05-28T20:49:56Z</time>
      </trkpt>
      <trkpt lat="51.226566" lon="4.458166">
        <ele>4</ele>
        <time>2020-05-28T20:50:21Z</time>
      </trkpt>
      <trkpt lat="51.226494" lon="4.458242">
        <ele>3.9</ele>
        <time>2020-05-28T20:50:29Z</time>
      </trkpt>
      <trkpt lat="51.226429" lon="4.458322">
        <ele>3.8</ele>
        <time>2020-05-28T20:50:41Z</time>
      </trkpt>
      <trkpt lat="51.226418" lon="4.458466">
        <ele>3.7</ele>
        <time>2020-05-28T20:50:49Z</time>
      </trkpt>
      <trkpt lat="51.226341" lon="4.458511">
        <ele>3.6</ele>
        <time>2020-05-28T20:50:56Z</time>
      </trkpt>
      <trkpt lat="51.226266" lon="4.458599">
        <ele>3.5</ele>
        <time>2020-05-28T20:51:04Z</time>
      </trkpt>
      <trkpt lat="51.226182" lon="4.458656">
        <ele>3.5</ele>
        <time>2020-05-28T20:51:09Z</time>
      </trkpt>
      <trkpt lat="51.226105" lon="4.458701">
        <ele>3.4</ele>
        <time>2020-05-28T20:51:15Z</time>
      </trkpt>
      <trkpt lat="51.226046" lon="4.458797">
        <ele>3.3</ele>
        <time>2020-05-28T20:51:33Z</time>
      </trkpt>
      <trkpt lat="51.226097" lon="4.458937">
        <ele>3.2</ele>
        <time>2020-05-28T20:51:43Z</time>
      </trkpt>
      <trkpt lat="51.226129" lon="4.459062">
        <ele>3.1</ele>
        <time>2020-05-28T20:51:48Z</time>
      </trkpt>
      <trkpt lat="51.226171" lon="4.459201">
        <ele>3</ele>
        <time>2020-05-28T20:51:58Z</time>
      </trkpt>
      <trkpt lat="51.22624" lon="4.459277">
        <ele>3.1</ele>
        <time>2020-05-28T20:52:10Z</time>
      </trkpt>
      <trkpt lat="51.2263" lon="4.459399">
        <ele>3.2</ele>
        <time>2020-05-28T20:52:16Z</time>
      </trkpt>
      <trkpt lat="51.226336" lon="4.459522">
        <ele>3.3</ele>
        <time>2020-05-28T20:52:20Z</time>
      </trkpt>
      <trkpt lat="51.226357" lon="4.459656">
        <ele>3.4</ele>
        <time>2020-05-28T20:52:26Z</time>
      </trkpt>
      <trkpt lat="51.226377" lon="4.459803">
        <ele>3.5</ele>
        <time>2020-05-28T20:52:42Z</time>
      </trkpt>
      <trkpt lat="51.226355" lon="4.459954">
        <ele>3.5</ele>
        <time>2020-05-28T20:52:47Z</time>
      </trkpt>
      <trkpt lat="51.226343" lon="4.460097">
        <ele>3.6</ele>
        <time>2020-05-28T20:52:53Z</time>
      </trkpt>
      <trkpt lat="51.226351" lon="4.460235">
        <ele>3.7</ele>
        <time>2020-05-28T20:52:58Z</time>
      </trkpt>
      <trkpt lat="51.226358" lon="4.460097">
        <ele>3.7</ele>
        <time>2020-05-28T20:53:19Z</time>
      </trkpt>
      <trkpt lat="51.226315" lon="4.459986">
        <ele>3.7</ele>
        <time>2020-05-28T20:53:23Z</time>
      </trkpt>
      <trkpt lat="51.226317" lon="4.460122">
        <ele>3.7</ele>
        <time>2020-05-28T20:53:45Z</time>
      </trkpt>
      <trkpt lat="51.226342" lon="4.460246">
        <ele>3.6</ele>
        <time>2020-05-28T20:53:50Z</time>
      </trkpt>
      <trkpt lat="51.226357" lon="4.460383">
        <ele>3.5</ele>
        <time>2020-05-28T20:53:54Z</time>
      </trkpt>
      <trkpt lat="51.226408" lon="4.460531">
        <ele>3.3</ele>
        <time>2020-05-28T20:53:59Z</time>
      </trkpt>
      <trkpt lat="51.226442" lon="4.460662">
        <ele>3.2</ele>
        <time>2020-05-28T20:54:03Z</time>
      </trkpt>
      <trkpt lat="51.226452" lon="4.46079">
        <ele>3.1</ele>
        <time>2020-05-28T20:54:10Z</time>
      </trkpt>
      <trkpt lat="51.226469" lon="4.460926">
        <ele>3</ele>
        <time>2020-05-28T20:54:21Z</time>
      </trkpt>
      <trkpt lat="51.226458" lon="4.461074">
        <ele>2.9</ele>
        <time>2020-05-28T20:54:52Z</time>
      </trkpt>
      <trkpt lat="51.226499" lon="4.461196">
        <ele>2.9</ele>
        <time>2020-05-28T20:54:56Z</time>
      </trkpt>
      <trkpt lat="51.226543" lon="4.461333">
        <ele>3</ele>
        <time>2020-05-28T20:55:00Z</time>
      </trkpt>
      <trkpt lat="51.226571" lon="4.461459">
        <ele>3.2</ele>
        <time>2020-05-28T20:55:04Z</time>
      </trkpt>
      <trkpt lat="51.226614" lon="4.46157">
        <ele>3.5</ele>
        <time>2020-05-28T20:55:24Z</time>
      </trkpt>
      <trkpt lat="51.226694" lon="4.461534">
        <ele>3.7</ele>
        <time>2020-05-28T20:55:30Z</time>
      </trkpt>
      <trkpt lat="51.226779" lon="4.461499">
        <ele>4.2</ele>
        <time>2020-05-28T20:55:41Z</time>
      </trkpt>
      <trkpt lat="51.22686" lon="4.461495">
        <ele>4.6</ele>
        <time>2020-05-28T20:55:51Z</time>
      </trkpt>
      <trkpt lat="51.226942" lon="4.461458">
        <ele>5</ele>
        <time>2020-05-28T20:55:54Z</time>
      </trkpt>
      <trkpt lat="51.227025" lon="4.461429">
        <ele>5.5</ele>
        <time>2020-05-28T20:56:01Z</time>
      </trkpt>
      <trkpt lat="51.227103" lon="4.461372">
        <ele>5.9</ele>
        <time>2020-05-28T20:56:09Z</time>
      </trkpt>
      <trkpt lat="51.227186" lon="4.461357">
        <ele>6.3</ele>
        <time>2020-05-28T20:56:26Z</time>
      </trkpt>
      <trkpt lat="51.227271" lon="4.461326">
        <ele>6.5</ele>
        <time>2020-05-28T20:56:30Z</time>
      </trkpt>
      <trkpt lat="51.22736" lon="4.461284">
        <ele>6.7</ele>
        <time>2020-05-28T20:56:35Z</time>
      </trkpt>
      <trkpt lat="51.227412" lon="4.461164">
        <ele>6.8</ele>
        <time>2020-05-28T20:56:47Z</time>
      </trkpt>
      <trkpt lat="51.227461" lon="4.461044">
        <ele>6.8</ele>
        <time>2020-05-28T20:56:55Z</time>
      </trkpt>
      <trkpt lat="51.227501" lon="4.460926">
        <ele>6.8</ele>
        <time>2020-05-28T20:57:16Z</time>
      </trkpt>
      <trkpt lat="51.227495" lon="4.460777">
        <ele>6.7</ele>
        <time>2020-05-28T20:57:25Z</time>
      </trkpt>
      <trkpt lat="51.227444" lon="4.46067">
        <ele>6.6</ele>
        <time>2020-05-28T20:57:31Z</time>
      </trkpt>
      <trkpt lat="51.227374" lon="4.460606">
        <ele>6.5</ele>
        <time>2020-05-28T20:58:09Z</time>
      </trkpt>
      <trkpt lat="51.227321" lon="4.460492">
        <ele>6.4</ele>
        <time>2020-05-28T20:58:18Z</time>
      </trkpt>
      <trkpt lat="51.227266" lon="4.460376">
        <ele>6.1</ele>
        <time>2020-05-28T20:58:29Z</time>
      </trkpt>
      <trkpt lat="51.227279" lon="4.460243">
        <ele>5.9</ele>
        <time>2020-05-28T20:58:58Z</time>
      </trkpt>
      <trkpt lat="51.227249" lon="4.460118">
        <ele>5.7</ele>
        <time>2020-05-28T20:59:07Z</time>
      </trkpt>
      <trkpt lat="51.227206" lon="4.459989">
        <ele>5.7</ele>
        <time>2020-05-28T20:59:14Z</time>
      </trkpt>
      <trkpt lat="51.227178" lon="4.459841">
        <ele>5.6</ele>
        <time>2020-05-28T20:59:20Z</time>
      </trkpt>
      <trkpt lat="51.227178" lon="4.4597">
        <ele>5.5</ele>
        <time>2020-05-28T20:59:28Z</time>
      </trkpt>
      <trkpt lat="51.227146" lon="4.459576">
        <ele>5.5</ele>
        <time>2020-05-28T20:59:34Z</time>
      </trkpt>
      <trkpt lat="51.227093" lon="4.45945">
        <ele>5.4</ele>
        <time>2020-05-28T20:59:40Z</time>
      </trkpt>
      <trkpt lat="51.227058" lon="4.459313">
        <ele>5.2</ele>
        <time>2020-05-28T20:59:50Z</time>
      </trkpt>
      <trkpt lat="51.227114" lon="4.459203">
        <ele>5</ele>
        <time>2020-05-28T20:59:58Z</time>
      </trkpt>
      <trkpt lat="51.227193" lon="4.459161">
        <ele>4.8</ele>
        <time>2020-05-28T21:00:02Z</time>
      </trkpt>
      <trkpt lat="51.227268" lon="4.459074">
        <ele>4.7</ele>
        <time>2020-05-28T21:00:11Z</time>
      </trkpt>
      <trkpt lat="51.227343" lon="4.459005">
        <ele>4.6</ele>
        <time>2020-05-28T21:00:20Z</time>
      </trkpt>
      <trkpt lat="51.227414" lon="4.459072">
        <ele>4.6</ele>
        <time>2020-05-28T21:00:32Z</time>
      </trkpt>
      <trkpt lat="51.227495" lon="4.459016">
        <ele>4.5</ele>
        <time>2020-05-28T21:00:36Z</time>
      </trkpt>
      <trkpt lat="51.227568" lon="4.458938">
        <ele>4.4</ele>
        <time>2020-05-28T21:00:39Z</time>
      </trkpt>
      <trkpt lat="51.227628" lon="4.458833">
        <ele>4.2</ele>
        <time>2020-05-28T21:00:45Z</time>
      </trkpt>
      <trkpt lat="51.227705" lon="4.458778">
        <ele>4</ele>
        <time>2020-05-28T21:00:50Z</time>
      </trkpt>
      <trkpt lat="51.227787" lon="4.458736">
        <ele>3.8</ele>
        <time>2020-05-28T21:00:57Z</time>
      </trkpt>
      <trkpt lat="51.227866" lon="4.458673">
        <ele>3.7</ele>
        <time>2020-05-28T21:01:03Z</time>
      </trkpt>
      <trkpt lat="51.227945" lon="4.458636">
        <ele>3.5</ele>
        <time>2020-05-28T21:01:09Z</time>
      </trkpt>
      <trkpt lat="51.228027" lon="4.458663">
        <ele>3.5</ele>
        <time>2020-05-28T21:01:20Z</time>
      </trkpt>
      <trkpt lat="51.228119" lon="4.45857">
        <ele>3.4</ele>
        <time>2020-05-28T21:01:32Z</time>
      </trkpt>
      <trkpt lat="51.228204" lon="4.458533">
        <ele>3.3</ele>
        <time>2020-05-28T21:01:35Z</time>
      </trkpt>
      <trkpt lat="51.22828" lon="4.458447">
        <ele>3</ele>
        <time>2020-05-28T21:01:38Z</time>
      </trkpt>
      <trkpt lat="51.22835" lon="4.458343">
        <ele>2.9</ele>
        <time>2020-05-28T21:01:42Z</time>
      </trkpt>
      <trkpt lat="51.228439" lon="4.458332">
        <ele>2.9</ele>
        <time>2020-05-28T21:01:46Z</time>
      </trkpt>
      <trkpt lat="51.228522" lon="4.458321">
        <ele>3</ele>
        <time>2020-05-28T21:01:53Z</time>
      </trkpt>
      <trkpt lat="51.228564" lon="4.458182">
        <ele>3.1</ele>
        <time>2020-05-28T21:02:07Z</time>
      </trkpt>
      <trkpt lat="51.228512" lon="4.458079">
        <ele>3.2</ele>
        <time>2020-05-28T21:02:14Z</time>
      </trkpt>
      <trkpt lat="51.228594" lon="4.458114">
        <ele>3.3</ele>
        <time>2020-05-28T21:02:31Z</time>
      </trkpt>
      <trkpt lat="51.228672" lon="4.458154">
        <ele>3.4</ele>
        <time>2020-05-28T21:02:43Z</time>
      </trkpt>
      <trkpt lat="51.228771" lon="4.458161">
        <ele>3.4</ele>
        <time>2020-05-28T21:02:53Z</time>
      </trkpt>
      <trkpt lat="51.228862" lon="4.458198">
        <ele>3.4</ele>
        <time>2020-05-28T21:03:02Z</time>
      </trkpt>
      <trkpt lat="51.228953" lon="4.458145">
        <ele>3.5</ele>
        <time>2020-05-28T21:03:14Z</time>
      </trkpt>
      <trkpt lat="51.229042" lon="4.45815">
        <ele>3.6</ele>
        <time>2020-05-28T21:03:24Z</time>
      </trkpt>
      <trkpt lat="51.229125" lon="4.458127">
        <ele>3.7</ele>
        <time>2020-05-28T21:03:31Z</time>
      </trkpt>
      <trkpt lat="51.229204" lon="4.458078">
        <ele>3.6</ele>
        <time>2020-05-28T21:03:36Z</time>
      </trkpt>
      <trkpt lat="51.229287" lon="4.458051">
        <ele>3.5</ele>
        <time>2020-05-28T21:03:43Z</time>
      </trkpt>
      <trkpt lat="51.229381" lon="4.458005">
        <ele>3.5</ele>
        <time>2020-05-28T21:03:47Z</time>
      </trkpt>
      <trkpt lat="51.229462" lon="4.457988">
        <ele>3.4</ele>
        <time>2020-05-28T21:03:58Z</time>
      </trkpt>
      <trkpt lat="51.229555" lon="4.457988">
        <ele>3.3</ele>
        <time>2020-05-28T21:04:02Z</time>
      </trkpt>
      <trkpt lat="51.229639" lon="4.458035">
        <ele>3.4</ele>
        <time>2020-05-28T21:04:20Z</time>
      </trkpt>
      <trkpt lat="51.229663" lon="4.457908">
        <ele>3.4</ele>
        <time>2020-05-28T21:04:29Z</time>
      </trkpt>
      <trkpt lat="51.229678" lon="4.457871">
        <ele>3.5</ele>
        <time>2020-05-28T21:04:53Z</time>
      </trkpt>
    </trkseg>
  </trk>
</gpx>